Time;durP1;ratioP1;P1;durP2;ratioP2;P2;SDS_P1;SDS_P2;PMS_P1;PMS_P2;Temp;Humidity;BMP_temperature;BMP_pressure;BME280_temperature;BME280_humidity;BME280_pressure;Samples;Min_cycle;Max_cycle;Signal;HPM_P1;HPM_P2
2021/01/19 00:01:49;;;;;;;5.45;3.40;;;5.40;99.90;;;;;;5091068;28;20270;-74
2021/01/19 00:04:22;;;;;;;4.68;4.25;;;5.40;99.90;;;;;;5092756;28;20220;-74
2021/01/19 00:06:55;;;;;;;6.63;3.92;;;5.40;99.90;;;;;;5092591;28;20643;-74
2021/01/19 00:09:27;;;;;;;4.10;3.55;;;5.40;99.90;;;;;;5092764;28;20238;-75
2021/01/19 00:12:00;;;;;;;4.45;3.90;;;5.40;99.90;;;;;;5093998;28;20225;-74
2021/01/19 00:14:33;;;;;;;4.53;3.00;;;5.30;99.90;;;;;;5094626;28;20230;-74
2021/01/19 00:17:05;;;;;;;9.60;3.20;;;5.30;99.90;;;;;;5094411;28;20197;-75
2021/01/19 00:19:39;;;;;;;5.32;3.53;;;5.40;99.90;;;;;;5093865;28;20189;-76
2021/01/19 00:22:11;;;;;;;4.60;3.85;;;5.30;99.90;;;;;;5089983;28;20217;-76
2021/01/19 00:24:44;;;;;;;4.30;3.20;;;5.40;99.90;;;;;;5091672;28;20250;-76
2021/01/19 00:27:16;;;;;;;7.70;3.05;;;5.40;99.90;;;;;;5092083;28;20552;-76
2021/01/19 00:29:49;;;;;;;4.50;2.90;;;5.30;99.90;;;;;;5092263;28;20348;-75
2021/01/19 00:32:21;;;;;;;5.32;3.05;;;5.30;99.90;;;;;;5092342;28;20231;-76
2021/01/19 00:34:55;;;;;;;5.13;3.00;;;5.30;99.90;;;;;;5094138;28;20197;-75
2021/01/19 00:37:27;;;;;;;3.70;2.45;;;5.30;99.90;;;;;;5094204;28;20198;-75
2021/01/19 00:40:00;;;;;;;5.50;2.50;;;5.30;99.90;;;;;;5094015;28;20223;-75
2021/01/19 00:42:33;;;;;;;3.80;2.45;;;5.40;99.90;;;;;;5091616;28;20237;-74
2021/01/19 00:45:06;;;;;;;3.63;2.67;;;5.30;99.90;;;;;;5089890;28;20294;-74
2021/01/19 00:47:39;;;;;;;3.50;3.00;;;5.20;99.90;;;;;;5091451;28;20727;-76
2021/01/19 00:50:13;;;;;;;7.15;2.63;;;5.30;99.90;;;;;;5090302;28;20229;-74
2021/01/19 00:52:45;;;;;;;3.70;2.10;;;5.30;99.90;;;;;;5091683;28;20269;-75
2021/01/19 00:55:18;;;;;;;5.50;3.17;;;5.30;99.90;;;;;;5092584;28;20203;-74
2021/01/19 00:57:50;;;;;;;6.35;2.50;;;5.30;99.90;;;;;;5093735;28;20288;-74
2021/01/19 01:00:23;;;;;;;3.25;2.42;;;5.20;99.90;;;;;;5093771;28;20198;-75
2021/01/19 01:02:56;;;;;;;4.43;2.53;;;5.20;99.90;;;;;;5093481;28;20694;-75
2021/01/19 01:05:29;;;;;;;3.08;2.25;;;5.20;99.90;;;;;;5089979;28;20258;-75
2021/01/19 01:08:02;;;;;;;4.07;2.40;;;5.20;99.90;;;;;;5089940;28;20206;-75
2021/01/19 01:10:35;;;;;;;4.15;2.70;;;5.20;99.90;;;;;;5091620;28;20214;-75
2021/01/19 01:13:07;;;;;;;4.30;2.30;;;5.20;99.90;;;;;;5091584;28;20554;-76
2021/01/19 01:15:40;;;;;;;7.57;2.33;;;5.20;99.90;;;;;;5091937;28;20200;-74
2021/01/19 01:18:14;;;;;;;5.40;2.45;;;5.10;99.90;;;;;;5093298;28;20212;-74
2021/01/19 01:20:47;;;;;;;4.40;2.53;;;5.20;99.90;;;;;;5092493;28;20194;-75
2021/01/19 01:23:20;;;;;;;2.97;2.33;;;5.10;99.90;;;;;;5093248;28;20708;-75
2021/01/19 01:25:52;;;;;;;2.55;2.35;;;5.20;99.90;;;;;;5092185;28;20280;-74
2021/01/19 01:28:25;;;;;;;3.53;2.47;;;5.10;99.90;;;;;;5089031;28;20250;-74
2021/01/19 01:30:57;;;;;;;5.10;2.55;;;5.20;99.90;;;;;;5090460;28;20206;-75
2021/01/19 01:33:29;;;;;;;5.63;2.80;;;5.10;99.90;;;;;;5089718;28;20232;-75
2021/01/19 01:36:03;;;;;;;2.78;2.25;;;5.10;99.90;;;;;;5090960;28;20246;-75
2021/01/19 01:38:36;;;;;;;4.75;2.35;;;5.10;99.90;;;;;;5091354;28;20723;-75
2021/01/19 01:41:15;;;;;;;2.75;2.30;;;5.10;99.90;;;;;;5093094;28;20292;-75
2021/01/19 01:43:48;;;;;;;4.80;2.70;;;5.10;99.90;;;;;;5091870;28;20225;-75
2021/01/19 01:46:21;;;;;;;4.80;2.22;;;5.10;99.90;;;;;;5092862;28;20208;-75
2021/01/19 01:48:53;;;;;;;5.38;2.72;;;5.20;99.90;;;;;;5090431;28;20615;-75
2021/01/19 01:51:28;;;;;;;5.22;3.05;;;5.10;99.90;;;;;;5087426;28;20223;-75
2021/01/19 01:54:02;;;;;;;2.92;2.50;;;5.10;99.90;;;;;;5089178;28;20211;-75
2021/01/19 01:56:34;;;;;;;5.68;2.60;;;5.00;99.90;;;;;;5072674;28;20663;-75
2021/01/19 01:59:07;;;;;;;2.63;2.20;;;5.10;99.90;;;;;;5090733;28;20730;-75
2021/01/19 02:01:39;;;;;;;5.85;2.30;;;5.10;99.90;;;;;;5091383;28;20194;-74
2021/01/19 02:04:12;;;;;;;5.10;2.67;;;5.10;99.90;;;;;;5092093;28;20204;-75
2021/01/19 02:06:47;;;;;;;6.75;3.30;;;5.10;99.90;;;;;;5092567;28;20646;-75
2021/01/19 02:09:26;;;;;;;2.65;2.45;;;5.10;99.90;;;;;;5092991;28;20231;-75
2021/01/19 02:12:05;;;;;;;4.72;2.80;;;5.00;99.90;;;;;;5088466;28;20215;-75
2021/01/19 02:14:41;;;;;;;3.38;2.80;;;5.00;99.90;;;;;;5087885;28;20197;-75
2021/01/19 02:17:23;;;;;;;3.13;2.40;;;5.10;99.90;;;;;;5090579;28;20201;-74
2021/01/19 02:20:21;;;;;;;7.18;2.60;;;5.00;99.90;;;;;;5090818;28;20198;-74
2021/01/19 02:23:07;;;;;;;5.72;2.90;;;5.00;99.90;;;;;;5090373;28;20282;-75
2021/01/19 02:26:00;;;;;;;2.22;2.00;;;5.00;99.90;;;;;;5075374;28;20284;-73
2021/01/19 02:28:39;;;;;;;5.53;2.55;;;5.00;99.90;;;;;;5091456;28;20296;-74
2021/01/19 02:31:26;;;;;;;5.47;2.60;;;5.00;99.90;;;;;;5091521;28;20296;-76
2021/01/19 02:34:11;;;;;;;5.03;3.03;;;5.00;99.90;;;;;;5087194;28;20197;-75
2021/01/19 02:36:50;;;;;;;4.30;2.30;;;5.00;99.90;;;;;;5088884;28;20205;-75
2021/01/19 02:39:31;;;;;;;1.95;1.75;;;4.90;99.90;;;;;;5090224;28;20200;-74
2021/01/19 02:42:08;;;;;;;5.32;2.30;;;4.80;99.90;;;;;;5090248;28;20217;-74
2021/01/19 02:44:42;;;;;;;7.40;2.25;;;4.90;99.90;;;;;;5089008;28;20219;-74
2021/01/19 02:47:15;;;;;;;5.72;2.70;;;4.80;99.90;;;;;;5092178;28;20295;-75
2021/01/19 02:49:48;;;;;;;3.72;2.20;;;4.70;99.90;;;;;;5091746;28;20214;-76
2021/01/19 02:52:22;;;;;;;5.07;2.55;;;4.70;99.90;;;;;;5071989;28;20229;-75
2021/01/19 02:54:56;;;;;;;3.70;2.53;;;4.70;99.90;;;;;;5069788;28;21056;-75
2021/01/19 02:57:40;;;;;;;5.30;2.60;;;4.70;99.90;;;;;;5067235;28;20202;-74
2021/01/19 03:00:15;;;;;;;4.88;2.70;;;4.60;99.90;;;;;;5068123;28;20247;-75
2021/01/19 03:02:50;;;;;;;6.68;2.28;;;4.60;99.90;;;;;;5068436;28;20218;-75
2021/01/19 03:05:25;;;;;;;3.05;2.15;;;4.60;99.90;;;;;;5070250;28;20208;-74
2021/01/19 03:08:03;;;;;;;3.67;2.22;;;4.50;99.90;;;;;;5070577;28;20688;-75
2021/01/19 03:10:38;;;;;;;5.75;2.05;;;4.50;99.90;;;;;;5071719;28;20709;-75
2021/01/19 03:13:13;;;;;;;3.17;2.30;;;4.50;99.90;;;;;;5054301;28;20225;-75
2021/01/19 03:15:45;;;;;;;5.03;2.30;;;4.40;99.90;;;;;;5075019;28;20197;-74
2021/01/19 03:18:17;;;;;;;4.70;2.30;;;4.50;99.90;;;;;;5070990;28;20217;-75
2021/01/19 03:20:52;;;;;;;3.78;2.30;;;4.40;99.90;;;;;;5071890;28;20194;-74
2021/01/19 03:23:24;;;;;;;5.38;2.75;;;4.40;99.90;;;;;;5073262;28;20224;-76
2021/01/19 03:25:57;;;;;;;4.95;2.70;;;4.40;99.90;;;;;;5073003;28;20259;-75
2021/01/19 03:28:30;;;;;;;15.25;3.25;;;4.40;99.90;;;;;;5073203;28;20209;-75
2021/01/19 03:31:03;;;;;;;6.82;3.00;;;4.30;99.90;;;;;;5054865;28;20233;-74
2021/01/19 03:33:35;;;;;;;5.20;2.55;;;4.40;99.90;;;;;;5053929;28;20572;-75
2021/01/19 03:36:09;;;;;;;6.45;2.35;;;4.40;99.90;;;;;;5055139;28;20202;-75
2021/01/19 03:38:41;;;;;;;4.35;2.60;;;4.30;99.90;;;;;;5060429;28;20677;-75
2021/01/19 03:41:14;;;;;;;10.50;2.85;;;4.30;99.90;;;;;;5070602;28;20191;-75
2021/01/19 03:43:46;;;;;;;5.85;2.30;;;4.30;99.90;;;;;;5072271;28;20232;-75
2021/01/19 03:46:19;;;;;;;4.82;2.70;;;4.30;99.90;;;;;;5072847;28;20195;-75
2021/01/19 03:48:52;;;;;;;4.93;2.72;;;4.30;99.90;;;;;;5072616;28;20225;-74
2021/01/19 03:51:26;;;;;;;5.55;2.60;;;4.30;99.90;;;;;;5085086;28;20218;-75
2021/01/19 03:53:58;;;;;;;11.43;2.42;;;4.30;99.90;;;;;;5077350;28;20197;-74
2021/01/19 03:56:31;;;;;;;3.88;2.30;;;4.20;99.90;;;;;;5095012;28;20413;-75
2021/01/19 03:59:03;;;;;;;3.92;2.20;;;4.30;99.90;;;;;;5094983;28;20251;-75
2021/01/19 04:01:40;;;;;;;5.60;2.30;;;4.30;99.90;;;;;;5091654;28;20524;-74
2021/01/19 04:04:13;;;;;;;3.60;2.00;;;4.30;99.90;;;;;;5090888;28;20190;-75
2021/01/19 04:06:46;;;;;;;5.03;2.60;;;4.30;99.90;;;;;;5092940;28;20619;-75
2021/01/19 04:09:19;;;;;;;6.32;2.53;;;4.30;99.90;;;;;;5092381;28;20713;-75
2021/01/19 04:11:51;;;;;;;6.72;3.10;;;4.30;99.90;;;;;;5092757;28;20578;-74
2021/01/19 04:14:24;;;;;;;6.20;3.22;;;4.30;99.90;;;;;;5093711;28;20719;-74
2021/01/19 04:16:56;;;;;;;10.25;3.22;;;4.30;99.90;;;;;;5094449;28;20201;-75
2021/01/19 04:19:29;;;;;;;7.07;2.83;;;4.30;99.90;;;;;;5094645;28;20200;-74
2021/01/19 04:22:02;;;;;;;6.22;3.60;;;4.40;99.90;;;;;;5094346;28;20225;-75
2021/01/19 04:24:35;;;;;;;7.72;3.10;;;4.30;99.90;;;;;;5090157;28;20708;-75
2021/01/19 04:27:07;;;;;;;7.38;2.67;;;4.30;99.90;;;;;;5090262;28;20231;-74
2021/01/19 04:29:40;;;;;;;5.20;3.28;;;4.40;99.90;;;;;;5092436;28;20407;-74
2021/01/19 04:32:13;;;;;;;5.38;2.75;;;4.30;99.90;;;;;;5092140;28;20239;-76
2021/01/19 04:34:45;;;;;;;7.55;2.95;;;4.40;99.90;;;;;;5092050;28;20204;-74
2021/01/19 04:37:18;;;;;;;10.88;3.08;;;4.30;99.90;;;;;;5094105;28;20193;-76
2021/01/19 04:39:51;;;;;;;6.43;3.40;;;4.30;99.90;;;;;;5093975;28;20684;-74
2021/01/19 04:42:24;;;;;;;4.75;2.85;;;4.40;99.90;;;;;;5093970;28;20214;-75
2021/01/19 04:45:04;;;;;;;4.25;2.58;;;4.40;99.90;;;;;;5092400;28;20208;-74
2021/01/19 04:47:38;;;;;;;5.72;2.53;;;4.40;99.90;;;;;;5088176;28;20200;-75
2021/01/19 04:50:12;;;;;;;7.70;3.17;;;4.40;99.90;;;;;;5068764;28;20241;-74
2021/01/19 04:52:47;;;;;;;8.75;2.50;;;4.40;99.90;;;;;;5070189;28;20683;-74
2021/01/19 04:55:23;;;;;;;9.48;2.80;;;4.40;99.90;;;;;;5070398;28;20204;-74
2021/01/19 04:57:58;;;;;;;7.18;2.78;;;4.40;99.90;;;;;;5081893;28;20558;-74
2021/01/19 05:00:33;;;;;;;8.07;2.55;;;4.50;99.90;;;;;;5093650;28;20198;-75
2021/01/19 05:03:18;;;;;;;5.72;2.33;;;4.50;99.90;;;;;;5092659;28;20219;-75
2021/01/19 05:06:01;;;;;;;7.43;2.47;;;4.50;99.90;;;;;;5092670;28;20204;-75
2021/01/19 05:08:55;;;;;;;3.65;2.00;;;4.50;99.90;;;;;;5073742;28;20333;-75
2021/01/19 05:11:30;;;;;;;5.70;2.42;;;4.50;99.90;;;;;;5089527;28;20194;-75
2021/01/19 05:14:03;;;;;;;4.85;2.65;;;4.50;99.90;;;;;;5089987;28;20229;-74
2021/01/19 05:16:36;;;;;;;5.07;3.08;;;4.50;99.90;;;;;;5090115;28;20202;-74
2021/01/19 05:19:09;;;;;;;6.32;2.22;;;4.60;99.90;;;;;;5091323;28;20310;-75
2021/01/19 05:21:44;;;;;;;5.50;2.20;;;4.60;99.90;;;;;;5093416;28;20219;-73
2021/01/19 05:24:18;;;;;;;5.38;2.50;;;4.60;99.90;;;;;;5093455;28;20197;-76
2021/01/19 05:26:51;;;;;;;7.15;2.45;;;4.60;99.90;;;;;;5093292;28;20197;-74
2021/01/19 05:29:23;;;;;;;6.43;2.70;;;4.60;99.90;;;;;;5090808;28;20296;-75
2021/01/19 05:31:56;;;;;;;9.93;2.90;;;4.60;99.90;;;;;;5089173;28;20214;-73
2021/01/19 05:34:29;;;;;;;5.30;2.50;;;4.70;99.90;;;;;;5090474;28;20569;-75
2021/01/19 05:37:01;;;;;;;5.65;2.35;;;4.60;99.90;;;;;;5090444;28;20573;-75
2021/01/19 05:39:34;;;;;;;4.00;2.20;;;4.70;99.90;;;;;;5090739;28;20466;-75
2021/01/19 05:42:08;;;;;;;8.77;2.22;;;4.70;99.90;;;;;;5091497;28;20228;-75
2021/01/19 05:44:41;;;;;;;6.18;2.97;;;4.60;99.90;;;;;;5093099;28;20606;-74
2021/01/19 05:47:13;;;;;;;3.92;2.10;;;4.70;99.90;;;;;;5093075;28;20197;-75
2021/01/19 05:49:48;;;;;;;3.63;1.88;;;4.70;99.90;;;;;;5092793;28;20213;-75
2021/01/19 05:52:36;;;;;;;3.17;1.77;;;4.70;99.90;;;;;;5086993;28;20231;-75
2021/01/19 05:55:11;;;;;;;4.80;1.70;;;4.70;99.90;;;;;;5089452;28;20254;-74
2021/01/19 05:57:43;;;;;;;3.42;1.63;;;4.80;99.90;;;;;;5090710;28;20622;-75
2021/01/19 06:00:18;;;;;;;5.68;1.80;;;4.80;99.90;;;;;;5090616;28;20246;-74
2021/01/19 06:02:55;;;;;;;3.10;1.77;;;4.80;99.90;;;;;;5089465;28;20493;-75
2021/01/19 06:05:32;;;;;;;5.13;1.50;;;4.80;99.90;;;;;;5072561;28;20197;-75
2021/01/19 06:08:08;;;;;;;3.63;1.58;;;4.90;99.90;;;;;;5072591;28;20256;-74
2021/01/19 06:10:42;;;;;;;2.42;1.23;;;4.90;99.90;;;;;;5072420;28;20662;-75
2021/01/19 06:13:16;;;;;;;1.98;1.55;;;4.90;99.90;;;;;;5078928;28;20227;-74
2021/01/19 06:15:49;;;;;;;1.80;1.42;;;4.90;99.90;;;;;;5087177;28;20270;-74
2021/01/19 06:18:21;;;;;;;2.75;1.42;;;5.00;99.90;;;;;;5090100;28;20541;-75
2021/01/19 06:20:54;;;;;;;3.60;1.88;;;5.00;99.90;;;;;;5090127;28;20235;-76
2021/01/19 06:23:27;;;;;;;3.15;1.10;;;5.00;99.90;;;;;;5090152;28;20813;-74
2021/01/19 06:26:05;;;;;;;2.10;1.70;;;5.00;99.90;;;;;;5090809;28;20247;-74
2021/01/19 06:28:42;;;;;;;3.45;1.45;;;5.00;99.90;;;;;;5092532;28;20234;-77
2021/01/19 06:31:17;;;;;;;4.82;1.48;;;5.00;99.90;;;;;;5091040;28;20254;-74
2021/01/19 06:33:50;;;;;;;2.13;1.30;;;5.00;99.90;;;;;;5084275;28;20217;-73
2021/01/19 06:36:23;;;;;;;1.70;1.23;;;5.00;99.90;;;;;;5088214;28;20219;-78
2021/01/19 06:38:56;;;;;;;1.80;1.30;;;5.00;99.90;;;;;;5090174;28;20200;-77
2021/01/19 06:41:34;;;;;;;2.05;1.20;;;5.10;99.90;;;;;;5090242;28;20194;-79
2021/01/19 06:44:11;;;;;;;2.55;1.50;;;5.10;99.90;;;;;;5090324;28;20667;-74
2021/01/19 06:46:49;;;;;;;2.03;1.20;;;5.00;99.90;;;;;;5087058;28;20201;-77
2021/01/19 06:49:23;;;;;;;2.40;1.50;;;5.10;99.90;;;;;;5076397;28;20224;-76
2021/01/19 06:52:05;;;;;;;3.10;1.27;;;5.10;99.90;;;;;;5081609;28;20311;-76
2021/01/19 06:54:51;;;;;;;2.97;1.80;;;5.10;99.90;;;;;;5093277;28;20204;-76
2021/01/19 06:57:32;;;;;;;3.60;1.65;;;5.10;99.90;;;;;;5091664;28;20194;-77
2021/01/19 07:00:09;;;;;;;2.78;1.40;;;5.10;99.90;;;;;;5090632;28;20306;-77
2021/01/19 07:02:41;;;;;;;2.47;1.40;;;5.10;99.90;;;;;;5092667;28;20259;-76
2021/01/19 07:05:12;;;;;;;2.00;1.40;;;5.10;99.90;;;;;;5093340;28;20218;-77
2021/01/19 07:07:46;;;;;;;1.63;1.00;;;5.10;99.90;;;;;;5094036;28;20221;-76
2021/01/19 07:10:21;;;;;;;1.42;1.10;;;5.10;99.90;;;;;;5088899;28;20303;-76
2021/01/19 07:13:01;;;;;;;1.55;1.08;;;5.20;99.90;;;;;;5094517;28;20323;-76
2021/01/19 07:16:04;;;;;;;1.20;1.10;;;5.20;99.90;;;;;;5095524;28;20249;-75
2021/01/19 07:18:55;;;;;;;1.23;1.00;;;5.10;99.90;;;;;;5090742;28;20198;-75
2021/01/19 07:21:58;;;;;;;1.42;1.17;;;5.10;99.90;;;;;;5091028;28;20274;-75
2021/01/19 07:24:37;;;;;;;2.55;1.20;;;5.10;99.90;;;;;;5073104;28;20204;-76
2021/01/19 07:27:11;;;;;;;1.23;1.10;;;5.20;99.90;;;;;;5071973;28;20198;-75
2021/01/19 07:29:45;;;;;;;2.03;1.45;;;5.10;99.90;;;;;;5054307;28;20712;-75
2021/01/19 07:32:21;;;;;;;4.50;1.17;;;5.10;99.90;;;;;;5073342;28;20228;-77
2021/01/19 07:34:54;;;;;;;2.10;1.33;;;5.10;99.90;;;;;;5075173;28;20255;-75
2021/01/19 07:37:29;;;;;;;1.88;1.25;;;5.10;99.90;;;;;;5091426;28;20627;-77
2021/01/19 07:40:03;;;;;;;5.03;1.38;;;5.20;99.90;;;;;;5091894;28;20196;-74
2021/01/19 07:42:36;;;;;;;1.52;1.00;;;5.20;99.90;;;;;;5090323;28;20213;-74
2021/01/19 07:45:10;;;;;;;1.77;1.50;;;5.20;99.90;;;;;;5072466;28;20206;-74
2021/01/19 07:47:44;;;;;;;4.97;1.30;;;5.20;99.90;;;;;;5087187;28;20197;-75
2021/01/19 07:50:18;;;;;;;4.22;1.55;;;5.20;99.90;;;;;;5088960;28;20588;-75
2021/01/19 07:52:53;;;;;;;3.55;1.30;;;5.20;99.90;;;;;;5092630;28;20702;-75
2021/01/19 07:55:26;;;;;;;2.33;1.38;;;5.20;99.90;;;;;;5093834;28;20193;-74
2021/01/19 07:57:59;;;;;;;1.75;1.33;;;5.20;99.90;;;;;;5094957;28;20200;-75
2021/01/19 08:00:32;;;;;;;2.75;1.45;;;5.20;99.90;;;;;;5094146;28;20233;-74
2021/01/19 08:03:06;;;;;;;2.55;1.50;;;5.20;99.90;;;;;;5091737;28;20205;-76
2021/01/19 08:05:39;;;;;;;1.95;1.40;;;5.20;99.90;;;;;;5089824;28;20190;-75
2021/01/19 08:08:14;;;;;;;3.88;1.90;;;5.10;99.90;;;;;;5091837;28;20206;-75
2021/01/19 08:10:56;;;;;;;1.73;1.33;;;5.20;99.90;;;;;;5092063;28;20289;-75
2021/01/19 08:13:24;;;;;;;2.75;1.20;;;5.10;99.90;;;;;;5091096;28;20690;-75
2021/01/19 08:16:07;;;;;;;3.70;1.33;;;5.10;99.90;;;;;;5092300;28;20243;-75
2021/01/19 08:18:43;;;;;;;1.60;1.20;;;5.10;99.90;;;;;;5093680;28;20212;-74
2021/01/19 08:21:16;;;;;;;4.05;1.70;;;5.20;99.90;;;;;;5094237;28;20688;-76
2021/01/19 08:23:48;;;;;;;4.55;1.40;;;5.10;99.90;;;;;;5093895;28;20235;-74
2021/01/19 08:26:21;;;;;;;2.20;1.40;;;5.10;99.90;;;;;;5089156;28;20658;-74
2021/01/19 08:28:54;;;;;;;3.78;1.30;;;5.10;99.90;;;;;;5090384;28;20724;-74
2021/01/19 08:31:29;;;;;;;4.10;1.75;;;5.00;99.90;;;;;;5091630;28;20683;-75
2021/01/19 08:34:04;;;;;;;3.22;1.67;;;5.10;99.90;;;;;;5083705;28;20474;-74
2021/01/19 08:36:37;;;;;;;2.25;1.67;;;5.10;99.90;;;;;;5083840;28;20670;-75
2021/01/19 08:39:10;;;;;;;9.45;1.67;;;5.00;99.90;;;;;;5094156;28;20204;-75
2021/01/19 08:41:44;;;;;;;3.25;1.60;;;5.10;99.90;;;;;;5093873;28;20632;-74
2021/01/19 08:44:18;;;;;;;2.20;1.08;;;5.10;99.90;;;;;;5093025;28;20201;-74
2021/01/19 08:46:52;;;;;;;3.35;1.42;;;5.10;99.90;;;;;;5092821;28;20250;-76
2021/01/19 08:49:24;;;;;;;3.20;1.50;;;5.10;99.90;;;;;;5088910;28;20184;-76
2021/01/19 08:51:57;;;;;;;5.47;1.40;;;5.10;99.90;;;;;;5089268;28;20236;-77
2021/01/19 08:54:31;;;;;;;6.07;1.30;;;5.10;99.90;;;;;;5091034;28;20727;-77
2021/01/19 08:57:03;;;;;;;1.95;1.20;;;5.10;99.90;;;;;;5090926;28;20201;-78
2021/01/19 08:59:36;;;;;;;1.60;1.05;;;5.10;99.90;;;;;;5091653;28;20198;-78
2021/01/19 09:02:10;;;;;;;1.50;1.02;;;5.10;99.90;;;;;;5088708;28;20216;-77
2021/01/19 09:04:44;;;;;;;2.15;1.27;;;5.10;99.90;;;;;;5090530;28;20218;-76
2021/01/19 09:07:17;;;;;;;2.00;1.27;;;5.10;99.90;;;;;;5091337;28;20219;-76
2021/01/19 09:09:49;;;;;;;1.65;1.10;;;5.00;99.90;;;;;;5091333;28;20216;-76
2021/01/19 09:12:22;;;;;;;1.35;1.05;;;5.10;99.90;;;;;;5090930;28;20574;-77
2021/01/19 09:14:55;;;;;;;3.58;1.77;;;5.00;99.90;;;;;;5073342;28;20289;-76
2021/01/19 09:17:28;;;;;;;1.90;1.45;;;5.10;99.90;;;;;;5077005;28;20217;-78
2021/01/19 09:20:04;;;;;;;3.25;1.40;;;5.00;99.90;;;;;;5093537;28;20649;-77
2021/01/19 09:22:37;;;;;;;2.20;1.75;;;5.10;99.90;;;;;;5091765;28;20220;-79
2021/01/19 09:25:10;;;;;;;3.80;1.30;;;5.10;99.90;;;;;;5087400;28;20204;-77
2021/01/19 09:27:43;;;;;;;2.83;1.33;;;5.10;99.90;;;;;;5088829;28;20666;-76
2021/01/19 09:30:13;;;;;;;2.15;1.02;;;5.00;99.90;;;;;;5090526;28;20621;-76
2021/01/19 09:32:48;;;;;;;3.15;1.30;;;5.00;99.90;;;;;;5089668;28;20698;-77
2021/01/19 09:35:16;;;;;;;2.15;1.50;;;5.00;99.90;;;;;;5091152;28;20530;-76
2021/01/19 09:37:48;;;;;;;1.70;1.45;;;5.10;99.90;;;;;;5093253;28;20288;-77
2021/01/19 09:40:29;;;;;;;1.25;1.05;;;5.10;99.90;;;;;;5093239;28;20234;-77
2021/01/19 09:43:06;;;;;;;2.05;1.40;;;5.00;99.90;;;;;;5089317;28;20297;-76
2021/01/19 09:45:39;;;;;;;1.63;1.50;;;5.10;99.90;;;;;;5088008;28;20189;-79
2021/01/19 09:48:15;;;;;;;2.88;2.17;;;5.00;99.90;;;;;;5089272;28;20260;-77
2021/01/19 09:50:48;;;;;;;5.00;2.70;;;5.10;99.90;;;;;;5089766;28;20215;-76
2021/01/19 09:53:31;;;;;;;4.60;3.72;;;5.10;99.90;;;;;;5070563;28;20252;-75
2021/01/19 09:55:58;;;;;;;4.97;4.32;;;5.00;99.90;;;;;;5070068;28;20208;-77
2021/01/19 09:58:26;;;;;;;5.78;4.13;;;5.10;99.90;;;;;;5072016;28;20723;-78
2021/01/19 10:00:53;;;;;;;6.38;4.70;;;5.10;99.90;;;;;;5058621;28;20197;-78
2021/01/19 10:03:34;;;;;;;7.57;6.00;;;5.10;99.90;;;;;;5071070;28;20220;-80
2021/01/19 10:06:08;;;;;;;7.68;6.35;;;5.10;99.90;;;;;;5066587;28;20258;-78
2021/01/19 10:08:41;;;;;;;10.75;7.60;;;5.10;99.90;;;;;;5068305;28;20200;-77
2021/01/19 10:11:08;;;;;;;8.93;6.88;;;5.10;99.90;;;;;;5070118;28;20221;-76
2021/01/19 10:13:40;;;;;;;7.30;6.32;;;5.10;99.90;;;;;;5070231;28;20263;-79
2021/01/19 10:16:13;;;;;;;9.90;6.43;;;5.20;99.90;;;;;;5070461;28;20201;-77
2021/01/19 10:18:49;;;;;;;7.63;6.70;;;5.10;99.90;;;;;;5071648;28;20315;-75
2021/01/19 10:21:29;;;;;;;7.35;5.63;;;5.20;99.90;;;;;;5071848;28;20196;-78
2021/01/19 10:24:02;;;;;;;6.90;6.20;;;5.20;99.90;;;;;;5071762;28;20677;-77
2021/01/19 10:26:34;;;;;;;7.90;5.90;;;5.20;99.90;;;;;;5075433;28;20243;-77
2021/01/19 10:29:06;;;;;;;8.40;5.90;;;5.30;99.90;;;;;;5072013;28;20205;-77
2021/01/19 10:31:46;;;;;;;10.48;6.70;;;5.30;99.90;;;;;;5073070;28;20560;-77
2021/01/19 10:34:21;;;;;;;8.10;6.30;;;5.30;99.90;;;;;;5073865;28;20563;-79
2021/01/19 10:36:55;;;;;;;6.13;5.25;;;5.30;99.90;;;;;;5072408;28;20273;-78
2021/01/19 10:39:30;;;;;;;6.18;4.95;;;5.30;99.90;;;;;;5073436;28;20203;-76
2021/01/19 10:42:02;;;;;;;4.97;4.47;;;5.40;99.90;;;;;;5075935;28;20576;-78
2021/01/19 10:44:39;;;;;;;4.95;4.25;;;5.40;99.90;;;;;;5076278;28;20205;-80
2021/01/19 10:47:11;;;;;;;6.50;4.75;;;5.40;99.90;;;;;;5075834;28;20201;-78
2021/01/19 10:49:44;;;;;;;6.32;5.32;;;5.50;99.90;;;;;;5073678;28;20308;-78
2021/01/19 10:52:17;;;;;;;6.85;4.97;;;5.40;99.90;;;;;;5082188;28;20690;-78
2021/01/19 10:54:49;;;;;;;5.47;4.55;;;5.50;99.90;;;;;;5093569;28;20224;-80
2021/01/19 10:57:22;;;;;;;7.55;5.68;;;5.50;99.90;;;;;;5093461;28;20195;-80
2021/01/19 10:59:55;;;;;;;7.40;4.95;;;5.50;99.90;;;;;;5094001;28;20228;-80
2021/01/19 11:02:27;;;;;;;7.20;4.63;;;5.50;99.90;;;;;;5094828;28;20217;-78
2021/01/19 11:05:01;;;;;;;4.45;3.78;;;5.50;99.90;;;;;;5095636;28;20658;-79
2021/01/19 11:07:33;;;;;;;3.47;3.10;;;5.60;99.90;;;;;;5095936;28;20200;-79
2021/01/19 11:10:07;;;;;;;3.78;1.98;;;5.60;99.90;;;;;;5095900;28;20249;-80
2021/01/19 11:12:39;;;;;;;2.65;1.90;;;5.60;99.90;;;;;;5092308;28;20217;-77
2021/01/19 11:15:13;;;;;;;2.10;1.67;;;5.60;99.90;;;;;;5092024;28;20200;-78
2021/01/19 11:17:49;;;;;;;4.72;1.75;;;5.60;99.90;;;;;;5092656;28;20710;-79
2021/01/19 11:20:22;;;;;;;1.95;1.40;;;5.60;99.90;;;;;;5092597;28;20307;-77
2021/01/19 11:22:55;;;;;;;1.92;1.48;;;5.60;99.90;;;;;;5092525;28;20248;-77
2021/01/19 11:25:28;;;;;;;2.05;1.52;;;5.70;99.90;;;;;;5094986;28;20205;-79
2021/01/19 11:28:01;;;;;;;2.17;1.50;;;5.70;99.90;;;;;;5095271;28;20650;-79
2021/01/19 11:30:33;;;;;;;3.78;1.80;;;5.70;99.90;;;;;;5095673;28;20368;-79
2021/01/19 11:33:06;;;;;;;2.17;1.60;;;5.80;99.90;;;;;;5095336;28;20219;-77
2021/01/19 11:35:35;;;;;;;3.10;1.70;;;5.80;99.90;;;;;;5090543;28;20197;-78
2021/01/19 11:38:10;;;;;;;3.63;2.28;;;5.90;99.90;;;;;;5091438;28;20670;-77
2021/01/19 11:40:43;;;;;;;3.13;2.30;;;5.90;99.90;;;;;;5093234;28;20231;-79
2021/01/19 11:43:16;;;;;;;1.98;1.65;;;5.90;99.90;;;;;;5093119;28;20574;-79
2021/01/19 11:45:48;;;;;;;3.53;2.10;;;5.90;99.90;;;;;;5093533;28;20201;-79
2021/01/19 11:48:21;;;;;;;2.47;1.90;;;6.00;99.90;;;;;;5094275;28;20196;-79
2021/01/19 11:50:54;;;;;;;3.20;2.35;;;6.00;99.90;;;;;;5094984;28;20239;-78
2021/01/19 11:53:27;;;;;;;2.05;1.67;;;6.10;99.90;;;;;;5094847;28;20225;-78
2021/01/19 11:56:02;;;;;;;2.17;1.45;;;6.10;99.90;;;;;;5094111;28;20672;-77
2021/01/19 11:58:34;;;;;;;4.28;1.70;;;6.10;99.90;;;;;;5090063;28;20662;-79
2021/01/19 12:01:07;;;;;;;8.57;2.70;;;6.10;99.90;;;;;;5091231;28;20710;-76
2021/01/19 12:03:39;;;;;;;4.40;1.95;;;6.30;99.90;;;;;;5092456;28;20698;-78
2021/01/19 12:06:07;;;;;;;2.30;1.42;;;6.30;99.90;;;;;;5092379;28;20554;-78
2021/01/19 12:08:39;;;;;;;4.45;2.17;;;6.40;99.90;;;;;;5092832;28;20204;-78
2021/01/19 12:11:12;;;;;;;2.28;1.40;;;6.50;99.90;;;;;;5094497;28;20710;-78
2021/01/19 12:13:46;;;;;;;5.45;1.65;;;6.50;99.90;;;;;;5094461;28;20268;-80
2021/01/19 12:16:21;;;;;;;2.75;1.55;;;6.60;99.90;;;;;;5093149;28;20206;-80
2021/01/19 12:18:53;;;;;;;2.90;1.70;;;6.70;99.90;;;;;;5092969;28;20193;-80
2021/01/19 12:21:28;;;;;;;4.43;1.20;;;6.80;99.90;;;;;;5089919;28;20344;-76
2021/01/19 12:24:00;;;;;;;4.22;1.42;;;6.80;99.90;;;;;;5091607;28;20572;-78
2021/01/19 12:26:33;;;;;;;6.78;2.30;;;6.90;99.90;;;;;;5091775;28;20637;-79
2021/01/19 12:29:06;;;;;;;7.13;2.53;;;6.90;99.90;;;;;;5092209;28;20241;-77
2021/01/19 12:31:38;;;;;;;5.72;2.20;;;7.00;99.90;;;;;;5092423;28;20486;-78
2021/01/19 12:34:11;;;;;;;2.33;1.50;;;7.00;99.90;;;;;;5093601;28;20294;-80
2021/01/19 12:36:44;;;;;;;2.72;1.10;;;6.90;99.90;;;;;;5093059;28;20220;-79
2021/01/19 12:39:17;;;;;;;1.77;1.00;;;7.00;99.90;;;;;;5094225;28;20196;-79
2021/01/19 12:41:51;;;;;;;1.70;1.00;;;7.00;99.90;;;;;;5091562;28;20227;-79
2021/01/19 12:44:23;;;;;;;2.47;1.40;;;7.10;99.90;;;;;;5090330;28;20271;-77
2021/01/19 12:46:58;;;;;;;1.20;0.93;;;7.10;99.90;;;;;;5090893;28;20253;-77
2021/01/19 12:49:31;;;;;;;3.88;1.10;;;7.10;99.90;;;;;;5090243;28;20500;-78
2021/01/19 12:52:09;;;;;;;2.33;0.88;;;7.10;99.90;;;;;;5090961;28;20226;-77
2021/01/19 12:54:42;;;;;;;2.30;1.10;;;7.20;99.90;;;;;;5092752;28;20209;-80
2021/01/19 12:57:14;;;;;;;1.98;1.05;;;7.20;99.90;;;;;;5093884;28;20247;-77
2021/01/19 12:59:47;;;;;;;3.08;1.20;;;7.20;99.90;;;;;;5093994;28;20196;-79
2021/01/19 13:02:20;;;;;;;2.90;1.33;;;7.20;99.90;;;;;;5093740;28;20711;-80
2021/01/19 13:04:52;;;;;;;2.43;1.70;;;7.30;99.90;;;;;;5089801;28;20201;-80
2021/01/19 13:07:26;;;;;;;3.17;1.33;;;7.30;99.90;;;;;;5089680;28;20438;-79
2021/01/19 13:09:53;;;;;;;2.03;1.20;;;7.30;99.90;;;;;;5091201;28;20220;-82
2021/01/19 13:12:26;;;;;;;1.40;1.10;;;7.30;99.90;;;;;;5091583;28;20519;-79
2021/01/19 13:14:58;;;;;;;1.75;1.35;;;7.30;99.90;;;;;;5091900;28;20210;-79
2021/01/19 13:17:39;;;;;;;3.10;1.37;;;7.40;99.90;;;;;;5092864;28;20200;-80
2021/01/19 13:20:11;;;;;;;2.10;1.40;;;7.40;99.90;;;;;;5093372;28;20441;-77
2021/01/19 13:22:45;;;;;;;2.13;1.30;;;7.40;99.90;;;;;;5092947;28;20260;-79
2021/01/19 13:25:20;;;;;;;1.17;1.07;;;;;;;;;;5092857;28;20449;-80
2021/01/19 13:27:52;;;;;;;3.23;1.70;;;;;;;;;;5088973;28;20465;-80
2021/01/19 13:30:26;;;;;;;1.30;1.07;;;;;;;;;;5089601;28;20483;-81
2021/01/19 13:32:58;;;;;;;1.73;1.23;;;;;;;;;;5090870;28;20503;-77
2021/01/19 13:35:31;;;;;;;1.70;1.20;;;;;;;;;;5090858;28;20449;-78